1215G UWKS-UWKS
Flight info
| Callsign | 1215G |
|---|---|
| Flight time | 0h 5m |
| Altitude | 3000 |
| Route | /ZONA R004 5602N04729E/ |
| Aircraft | SVNH/L-SDFGY/S |
Departure
| Time | 2026-05-07 18:16 |
|---|---|
| Airport | Cheboksary Airport (UWKS) |
Arrival
| Time | 2026-05-07 18:21 |
|---|---|
| Airport | Cheboksary Airport (UWKS) |
| Time | Latitude | Longitude | Altitude | Speed | Heading |
|---|---|---|---|---|---|
| 2026-05-07 17:57 | 56.08399 | 47.32146 | 559 ft | 0 kts | 172° |
| 2026-05-07 18:12 | 56.08384 | 47.32150 | 563 ft | 10 kts | 161° |
| 2026-05-07 18:12 | 56.08407 | 47.32239 | 559 ft | 12 kts | 39° |
| 2026-05-07 18:12 | 56.08472 | 47.32390 | 559 ft | 19 kts | 55° |
| 2026-05-07 18:13 | 56.08484 | 47.32423 | 559 ft | 0 kts | 54° |
| 2026-05-07 18:13 | 56.08506 | 47.32485 | 559 ft | 13 kts | 59° |
| 2026-05-07 18:13 | 56.08561 | 47.32623 | 559 ft | 13 kts | 54° |
| 2026-05-07 18:14 | 56.08613 | 47.32750 | 559 ft | 13 kts | 54° |
| 2026-05-07 18:14 | 56.08685 | 47.32920 | 564 ft | 27 kts | 52° |
| 2026-05-07 18:14 | 56.08710 | 47.32986 | 561 ft | 0 kts | 73° |
| 2026-05-07 18:15 | 56.08724 | 47.33060 | 564 ft | 30 kts | 72° |
| 2026-05-07 18:15 | 56.08846 | 47.33706 | 642 ft | 65 kts | 71° |
| 2026-05-07 18:15 | 56.09017 | 47.34547 | 790 ft | 82 kts | 69° |
| 2026-05-07 18:15 | 56.09261 | 47.35531 | 1034 ft | 85 kts | 65° |
| 2026-05-07 18:16 | 56.09459 | 47.36130 | 1200 ft | 84 kts | 62° |
| 2026-05-07 18:16 | 56.09783 | 47.37054 | 1378 ft | 91 kts | 63° |
| 2026-05-07 18:16 | 56.10095 | 47.38019 | 1466 ft | 93 kts | 69° |
| 2026-05-07 18:16 | 56.10356 | 47.39097 | 1438 ft | 95 kts | 77° |
| 2026-05-07 18:17 | 56.10560 | 47.40223 | 1424 ft | 91 kts | 92° |
| 2026-05-07 18:17 | 56.10329 | 47.41138 | 1410 ft | 81 kts | 150° |
| 2026-05-07 18:17 | 56.09807 | 47.41546 | 1357 ft | 82 kts | 175° |
| 2026-05-07 18:17 | 56.09239 | 47.41357 | 1351 ft | 85 kts | 189° |
| 2026-05-07 18:18 | 56.08680 | 47.41092 | 1373 ft | 83 kts | 193° |
| 2026-05-07 18:18 | 56.08134 | 47.41085 | 1377 ft | 83 kts | 147° |
| 2026-05-07 18:18 | 56.07887 | 47.42024 | 1358 ft | 88 kts | 102° |
| 2026-05-07 18:18 | 56.07839 | 47.43116 | 1359 ft | 87 kts | 105° |
| 2026-05-07 18:19 | 56.07762 | 47.44195 | 1345 ft | 90 kts | 103° |
| 2026-05-07 18:19 | 56.07686 | 47.45305 | 1405 ft | 88 kts | 105° |
| 2026-05-07 18:19 | 56.07619 | 47.46388 | 1458 ft | 89 kts | 101° |
| 2026-05-07 18:19 | 56.07618 | 47.47498 | 1478 ft | 90 kts | 97° |
| 2026-05-07 18:20 | 56.07521 | 47.48582 | 1519 ft | 89 kts | 126° |
| 2026-05-07 18:20 | 56.07099 | 47.49318 | 1621 ft | 83 kts | 141° |
| 2026-05-07 18:20 | 56.06766 | 47.50118 | 1641 ft | 83 kts | 125° |
| 2026-05-07 18:20 | 56.06516 | 47.51058 | 1657 ft | 85 kts | 126° |
| 2026-05-07 18:21 | 56.06197 | 47.51733 | 1646 ft | 59 kts | 142° |
| 2026-05-07 18:21 | 56.05943 | 47.52179 | 1511 ft | 44 kts | 193° |
| 2026-05-07 18:21 | 56.05606 | 47.52128 | 1180 ft | 53 kts | 202° |
| 2026-05-07 18:21 | 56.05272 | 47.51809 | 831 ft | 55 kts | 222° |
| 2026-05-07 18:22 | 56.04973 | 47.51372 | 392 ft | 60 kts | 218° |
| 2026-05-07 18:22 | 56.04816 | 47.50982 | 237 ft | 52 kts | 232° |
| 2026-05-07 18:22 | 56.04562 | 47.50368 | 254 ft | 46 kts | 231° |
| 2026-05-07 18:22 | 56.04379 | 47.49901 | 283 ft | 46 kts | 236° |
| 2026-05-07 18:23 | 56.04175 | 47.49433 | 391 ft | 48 kts | 223° |
| 2026-05-07 18:23 | 56.04095 | 47.49506 | 384 ft | 68 kts | 40° |
| 2026-05-07 18:23 | 56.04370 | 47.50173 | 278 ft | 58 kts | 53° |
| 2026-05-07 18:23 | 56.04585 | 47.50715 | 253 ft | 52 kts | 52° |
| 2026-05-07 18:24 | 56.04822 | 47.51211 | 262 ft | 53 kts | 44° |
| 2026-05-07 18:24 | 56.05148 | 47.51685 | 386 ft | 68 kts | 32° |
| 2026-05-07 18:24 | 56.05031 | 47.51839 | 334 ft | 62 kts | 220° |
| 2026-05-07 18:24 | 56.04739 | 47.51347 | 236 ft | 53 kts | 229° |
| 2026-05-07 18:25 | 56.04529 | 47.50866 | 252 ft | 48 kts | 232° |
| 2026-05-07 18:25 | 56.04336 | 47.50386 | 271 ft | 47 kts | 233° |
| 2026-05-07 18:25 | 56.04152 | 47.49903 | 297 ft | 48 kts | 235° |
| 2026-05-07 18:25 | 56.03963 | 47.49367 | 387 ft | 55 kts | 236° |
| 2026-05-07 18:26 | 56.03758 | 47.48769 | 476 ft | 56 kts | 240° |
| 2026-05-07 18:26 | 56.03639 | 47.48678 | 334 ft | 0 kts | 251° |
| 2026-05-07 18:28 | 56.03638 | 47.48676 | 334 ft | 4 kts | 251° |
| 2026-05-07 18:29 | 56.03634 | 47.48662 | 332 ft | 0 kts | 221° |
| 2026-05-07 18:29 | 56.03580 | 47.48614 | 339 ft | 32 kts | 206° |
| 2026-05-07 18:29 | 56.03384 | 47.48285 | 474 ft | 46 kts | 255° |
| 2026-05-07 18:29 | 56.03373 | 47.47589 | 649 ft | 55 kts | 283° |
| 2026-05-07 18:30 | 56.03234 | 47.47010 | 695 ft | 67 kts | 165° |
| 2026-05-07 18:30 | 56.03326 | 47.47612 | 703 ft | 72 kts | 8° |
| 2026-05-07 18:30 | 56.03686 | 47.47137 | 724 ft | 68 kts | 274° |
| 2026-05-07 18:30 | 56.03475 | 47.47206 | 643 ft | 75 kts | 88° |
| 2026-05-07 18:31 | 56.03444 | 47.48099 | 510 ft | 67 kts | 89° |
| 2026-05-07 18:31 | 56.03633 | 47.48807 | 397 ft | 61 kts | 57° |
| 2026-05-07 18:31 | 56.03861 | 47.49419 | 313 ft | 54 kts | 55° |
| 2026-05-07 18:31 | 56.04071 | 47.49924 | 306 ft | 48 kts | 53° |
| 2026-05-07 18:32 | 56.04258 | 47.50444 | 277 ft | 50 kts | 59° |
| 2026-05-07 18:32 | 56.04444 | 47.50952 | 261 ft | 49 kts | 55° |
| 2026-05-07 18:32 | 56.04653 | 47.51476 | 271 ft | 57 kts | 54° |
| 2026-05-07 18:32 | 56.04904 | 47.52083 | 392 ft | 66 kts | 52° |
| 2026-05-07 18:33 | 56.04960 | 47.52591 | 447 ft | 67 kts | 223° |
| 2026-05-07 18:33 | 56.04724 | 47.51881 | 303 ft | 62 kts | 231° |
| 2026-05-07 18:33 | 56.04475 | 47.51323 | 260 ft | 54 kts | 231° |
| 2026-05-07 18:33 | 56.04256 | 47.50804 | 273 ft | 53 kts | 233° |
| 2026-05-07 18:34 | 56.04069 | 47.50299 | 294 ft | 49 kts | 234° |
| 2026-05-07 18:34 | 56.03878 | 47.49804 | 319 ft | 46 kts | 236° |
| 2026-05-07 18:34 | 56.03698 | 47.49303 | 331 ft | 49 kts | 237° |
| 2026-05-07 18:34 | 56.03517 | 47.48786 | 357 ft | 48 kts | 238° |
| 2026-05-07 18:35 | 56.03347 | 47.48271 | 378 ft | 48 kts | 240° |
| 2026-05-07 18:35 | 56.03196 | 47.47758 | 410 ft | 47 kts | 243° |
| 2026-05-07 18:35 | 56.03048 | 47.47243 | 437 ft | 45 kts | 243° |
| 2026-05-07 18:35 | 56.02905 | 47.46750 | 489 ft | 50 kts | 246° |
| 2026-05-07 18:36 | 56.02828 | 47.47113 | 499 ft | 46 kts | 66° |
| 2026-05-07 18:36 | 56.03011 | 47.47711 | 432 ft | 62 kts | 60° |
| 2026-05-07 18:36 | 56.03195 | 47.48310 | 390 ft | 50 kts | 63° |
| 2026-05-07 18:36 | 56.03351 | 47.48840 | 365 ft | 47 kts | 63° |
| 2026-05-07 18:37 | 56.03499 | 47.49375 | 346 ft | 49 kts | 65° |
| 2026-05-07 18:37 | 56.03660 | 47.49938 | 326 ft | 53 kts | 59° |
| 2026-05-07 18:37 | 56.03867 | 47.50468 | 307 ft | 51 kts | 52° |
| 2026-05-07 18:37 | 56.04062 | 47.50976 | 294 ft | 49 kts | 53° |
| 2026-05-07 18:38 | 56.04273 | 47.51469 | 271 ft | 50 kts | 52° |
| 2026-05-07 18:38 | 56.04494 | 47.51958 | 275 ft | 53 kts | 48° |
| 2026-05-07 18:38 | 56.04802 | 47.52498 | 416 ft | 70 kts | 40° |
| 2026-05-07 18:38 | 56.04710 | 47.53036 | 431 ft | 80 kts | 219° |
| 2026-05-07 18:39 | 56.04462 | 47.52270 | 266 ft | 63 kts | 236° |
| 2026-05-07 18:39 | 56.04255 | 47.51725 | 266 ft | 47 kts | 236° |
| 2026-05-07 18:39 | 56.04076 | 47.51229 | 293 ft | 48 kts | 238° |
| 2026-05-07 18:39 | 56.03891 | 47.50725 | 314 ft | 49 kts | 236° |
| 2026-05-07 18:40 | 56.03705 | 47.50201 | 324 ft | 52 kts | 237° |
| 2026-05-07 18:40 | 56.03510 | 47.49664 | 336 ft | 50 kts | 236° |
| 2026-05-07 18:40 | 56.03337 | 47.49158 | 356 ft | 46 kts | 238° |
| 2026-05-07 18:40 | 56.03175 | 47.48676 | 385 ft | 42 kts | 239° |
| 2026-05-07 18:41 | 56.03022 | 47.48221 | 403 ft | 44 kts | 238° |
| 2026-05-07 18:41 | 56.02864 | 47.47745 | 431 ft | 45 kts | 240° |
| 2026-05-07 18:41 | 56.02722 | 47.47244 | 467 ft | 48 kts | 246° |
| 2026-05-07 18:41 | 56.02499 | 47.46887 | 509 ft | 59 kts | 109° |
| 2026-05-07 18:42 | 56.02735 | 47.47408 | 448 ft | 52 kts | 49° |
| 2026-05-07 18:42 | 56.02962 | 47.47891 | 416 ft | 50 kts | 50° |
| 2026-05-07 18:42 | 56.03187 | 47.48378 | 391 ft | 51 kts | 51° |
| 2026-05-07 18:42 | 56.03402 | 47.48876 | 362 ft | 50 kts | 51° |
| 2026-05-07 18:43 | 56.03613 | 47.49362 | 335 ft | 49 kts | 52° |
| 2026-05-07 18:43 | 56.03810 | 47.49845 | 319 ft | 47 kts | 54° |
| 2026-05-07 18:43 | 56.03999 | 47.50335 | 299 ft | 48 kts | 56° |
| 2026-05-07 18:43 | 56.04188 | 47.50845 | 286 ft | 50 kts | 55° |
| 2026-05-07 18:44 | 56.04391 | 47.51365 | 265 ft | 51 kts | 55° |
| 2026-05-07 18:44 | 56.04599 | 47.51884 | 252 ft | 57 kts | 52° |
| 2026-05-07 18:44 | 56.04868 | 47.52499 | 385 ft | 61 kts | 73° |
| 2026-05-07 18:44 | 56.04610 | 47.52796 | 375 ft | 68 kts | 225° |
| 2026-05-07 18:45 | 56.04341 | 47.52122 | 259 ft | 59 kts | 236° |
| 2026-05-07 18:45 | 56.04128 | 47.51561 | 283 ft | 52 kts | 236° |
| 2026-05-07 18:45 | 56.03936 | 47.51031 | 301 ft | 50 kts | 236° |
| 2026-05-07 18:45 | 56.03745 | 47.50515 | 322 ft | 49 kts | 242° |
| 2026-05-07 18:46 | 56.03563 | 47.49997 | 331 ft | 50 kts | 242° |
| 2026-05-07 18:46 | 56.03400 | 47.49472 | 363 ft | 43 kts | 242° |
| 2026-05-07 18:46 | 56.03228 | 47.48990 | 375 ft | 49 kts | 240° |
| 2026-05-07 18:46 | 56.03060 | 47.48419 | 404 ft | 54 kts | 244° |
| 2026-05-07 18:47 | 56.02884 | 47.47800 | 430 ft | 59 kts | 244° |
| 2026-05-07 18:47 | 56.02668 | 47.47159 | 496 ft | 66 kts | 238° |
| 2026-05-07 18:47 | 56.02571 | 47.47297 | 476 ft | 72 kts | 49° |
| 2026-05-07 18:47 | 56.02813 | 47.48002 | 429 ft | 54 kts | 61° |
| 2026-05-07 18:48 | 56.02999 | 47.48556 | 400 ft | 52 kts | 59° |
| 2026-05-07 18:48 | 56.03188 | 47.49109 | 368 ft | 52 kts | 58° |
| 2026-05-07 18:48 | 56.03376 | 47.49632 | 339 ft | 49 kts | 57° |
| 2026-05-07 18:48 | 56.03557 | 47.50130 | 327 ft | 47 kts | 58° |
| 2026-05-07 18:49 | 56.03725 | 47.50627 | 319 ft | 48 kts | 60° |
| 2026-05-07 18:49 | 56.03903 | 47.51154 | 303 ft | 50 kts | 58° |
| 2026-05-07 18:49 | 56.04093 | 47.51669 | 280 ft | 52 kts | 57° |
| 2026-05-07 18:49 | 56.04283 | 47.52195 | 259 ft | 53 kts | 57° |
| 2026-05-07 18:50 | 56.04520 | 47.52758 | 361 ft | 61 kts | 52° |
| 2026-05-07 18:50 | 56.04347 | 47.52742 | 298 ft | 64 kts | 234° |
| 2026-05-07 18:50 | 56.04112 | 47.52173 | 270 ft | 49 kts | 233° |
| 2026-05-07 18:50 | 56.03922 | 47.51717 | 294 ft | 44 kts | 233° |
| 2026-05-07 18:51 | 56.03832 | 47.51499 | 304 ft | 42 kts | 234° |
| 2026-05-07 18:51 | 56.03676 | 47.51115 | 321 ft | 49 kts | 236° |
| 2026-05-07 18:51 | 56.03492 | 47.50529 | 336 ft | 57 kts | 243° |
| 2026-05-07 18:52 | 56.03312 | 47.49944 | 345 ft | 52 kts | 241° |
| 2026-05-07 18:52 | 56.03143 | 47.49374 | 362 ft | 52 kts | 243° |
| 2026-05-07 18:52 | 56.02982 | 47.48794 | 385 ft | 52 kts | 244° |
| 2026-05-07 18:52 | 56.02817 | 47.48228 | 415 ft | 51 kts | 238° |
| 2026-05-07 18:53 | 56.02623 | 47.47699 | 440 ft | 50 kts | 235° |
| 2026-05-07 18:53 | 56.02410 | 47.47153 | 534 ft | 56 kts | 193° |
| 2026-05-07 18:53 | 56.02551 | 47.47708 | 478 ft | 68 kts | 57° |
| 2026-05-07 18:53 | 56.02788 | 47.48418 | 431 ft | 65 kts | 58° |
| 2026-05-07 18:54 | 56.03031 | 47.49092 | 382 ft | 63 kts | 57° |
| 2026-05-07 18:54 | 56.03253 | 47.49709 | 351 ft | 54 kts | 58° |
| 2026-05-07 18:54 | 56.03440 | 47.50245 | 335 ft | 49 kts | 58° |
| 2026-05-07 18:54 | 56.03624 | 47.50768 | 324 ft | 50 kts | 59° |
| 2026-05-07 18:55 | 56.03807 | 47.51297 | 309 ft | 50 kts | 59° |
| 2026-05-07 18:55 | 56.03994 | 47.51829 | 288 ft | 52 kts | 56° |
| 2026-05-07 18:55 | 56.04191 | 47.52383 | 271 ft | 55 kts | 59° |
| 2026-05-07 18:55 | 56.04405 | 47.53031 | 376 ft | 63 kts | 61° |
| 2026-05-07 18:56 | 56.04295 | 47.53108 | 329 ft | 60 kts | 240° |
| 2026-05-07 18:56 | 56.04099 | 47.52482 | 277 ft | 51 kts | 236° |
| 2026-05-07 18:56 | 56.03904 | 47.51981 | 296 ft | 47 kts | 232° |
| 2026-05-07 18:56 | 56.03710 | 47.51512 | 310 ft | 47 kts | 234° |
| 2026-05-07 18:57 | 56.03513 | 47.51025 | 324 ft | 49 kts | 234° |
| 2026-05-07 18:57 | 56.03326 | 47.50516 | 339 ft | 48 kts | 235° |
| 2026-05-07 18:57 | 56.03145 | 47.49999 | 347 ft | 51 kts | 240° |
| 2026-05-07 18:57 | 56.02970 | 47.49463 | 368 ft | 50 kts | 240° |
| 2026-05-07 18:58 | 56.02820 | 47.48909 | 385 ft | 50 kts | 244° |
| 2026-05-07 18:58 | 56.02670 | 47.48358 | 410 ft | 49 kts | 243° |
| 2026-05-07 18:58 | 56.02522 | 47.47820 | 424 ft | 48 kts | 245° |
| 2026-05-07 18:58 | 56.02295 | 47.47323 | 547 ft | 57 kts | 180° |
| 2026-05-07 18:59 | 56.02501 | 47.47877 | 466 ft | 68 kts | 59° |
| 2026-05-07 18:59 | 56.02718 | 47.48504 | 401 ft | 52 kts | 57° |
| 2026-05-07 18:59 | 56.02886 | 47.49060 | 384 ft | 50 kts | 60° |
| 2026-05-07 18:59 | 56.03043 | 47.49618 | 358 ft | 50 kts | 65° |
| 2026-05-07 19:00 | 56.03171 | 47.50173 | 348 ft | 47 kts | 70° |
| 2026-05-07 19:00 | 56.03273 | 47.50728 | 428 ft | 49 kts | 72° |
| 2026-05-07 19:00 | 56.03398 | 47.51384 | 491 ft | 58 kts | 63° |
| 2026-05-07 19:00 | 56.03378 | 47.51895 | 511 ft | 59 kts | 206° |
| 2026-05-07 19:01 | 56.03228 | 47.51139 | 436 ft | 61 kts | 251° |
| 2026-05-07 19:01 | 56.03099 | 47.50456 | 370 ft | 57 kts | 252° |
| 2026-05-07 19:01 | 56.02974 | 47.49802 | 358 ft | 57 kts | 253° |
| 2026-05-07 19:01 | 56.02811 | 47.49187 | 391 ft | 53 kts | 241° |
| 2026-05-07 19:02 | 56.02636 | 47.48604 | 410 ft | 53 kts | 239° |
| 2026-05-07 19:02 | 56.02417 | 47.48094 | 474 ft | 52 kts | 229° |
| 2026-05-07 19:02 | 56.02173 | 47.47572 | 648 ft | 57 kts | 211° |
| 2026-05-07 19:02 | 56.02124 | 47.47652 | 362 ft | 0 kts | 177° |
| 2026-05-07 19:04 | 56.02117 | 47.47652 | 364 ft | 10 kts | 194° |
| 2026-05-07 19:05 | 56.01933 | 47.47585 | 416 ft | 47 kts | 188° |
| 2026-05-07 19:05 | 56.01864 | 47.47047 | 521 ft | 62 kts | 285° |
| 2026-05-07 19:05 | 56.01926 | 47.46259 | 668 ft | 65 kts | 248° |
| 2026-05-07 19:05 | 56.01590 | 47.46132 | 812 ft | 63 kts | 112° |
| 2026-05-07 19:06 | 56.01885 | 47.46354 | 878 ft | 63 kts | 307° |
| 2026-05-07 19:06 | 56.01795 | 47.45747 | 873 ft | 67 kts | 80° |
| 2026-05-07 19:06 | 56.02031 | 47.46474 | 629 ft | 66 kts | 60° |
| 2026-05-07 19:07 | 56.02168 | 47.47137 | 568 ft | 52 kts | 83° |
| 2026-05-07 19:07 | 56.02237 | 47.47788 | 541 ft | 54 kts | 77° |
| 2026-05-07 19:07 | 56.02360 | 47.48440 | 489 ft | 57 kts | 60° |
| 2026-05-07 19:07 | 56.02566 | 47.49060 | 406 ft | 59 kts | 63° |
| 2026-05-07 19:08 | 56.02791 | 47.49614 | 351 ft | 50 kts | 56° |
| 2026-05-07 19:08 | 56.02970 | 47.50095 | 339 ft | 43 kts | 55° |
| 2026-05-07 19:08 | 56.03149 | 47.50534 | 329 ft | 47 kts | 53° |
| 2026-05-07 19:08 | 56.03323 | 47.51055 | 523 ft | 53 kts | 61° |
| 2026-05-07 19:09 | 56.03441 | 47.51646 | 563 ft | 51 kts | 143° |
| 2026-05-07 19:09 | 56.03207 | 47.51164 | 552 ft | 70 kts | 242° |
| 2026-05-07 19:09 | 56.02961 | 47.50255 | 619 ft | 88 kts | 242° |
| 2026-05-07 19:09 | 56.02696 | 47.49319 | 844 ft | 83 kts | 239° |
| 2026-05-07 19:10 | 56.02415 | 47.48416 | 899 ft | 85 kts | 236° |
| 2026-05-07 19:10 | 56.02090 | 47.47515 | 931 ft | 85 kts | 230° |
| 2026-05-07 19:10 | 56.01703 | 47.46696 | 971 ft | 87 kts | 224° |
| 2026-05-07 19:10 | 56.01274 | 47.45902 | 987 ft | 88 kts | 228° |
| 2026-05-07 19:11 | 56.01090 | 47.44855 | 988 ft | 91 kts | 268° |
| 2026-05-07 19:11 | 56.01320 | 47.43817 | 1019 ft | 96 kts | 309° |
| 2026-05-07 19:11 | 56.01814 | 47.43039 | 1012 ft | 94 kts | 319° |
| 2026-05-07 19:11 | 56.02190 | 47.42109 | 1025 ft | 93 kts | 298° |
| 2026-05-07 19:12 | 56.02528 | 47.41134 | 1068 ft | 94 kts | 302° |
| 2026-05-07 19:12 | 56.02930 | 47.40222 | 1148 ft | 94 kts | 314° |
| 2026-05-07 19:12 | 56.03404 | 47.39356 | 1168 ft | 98 kts | 301° |
| 2026-05-07 19:12 | 56.03530 | 47.38164 | 1132 ft | 102 kts | 269° |
| 2026-05-07 19:13 | 56.03583 | 47.36945 | 1073 ft | 94 kts | 280° |
| 2026-05-07 19:13 | 56.03851 | 47.35911 | 1006 ft | 90 kts | 300° |
| 2026-05-07 19:13 | 56.04229 | 47.35024 | 963 ft | 92 kts | 313° |
| 2026-05-07 19:13 | 56.04718 | 47.34279 | 972 ft | 95 kts | 320° |
| 2026-05-07 19:14 | 56.05174 | 47.33438 | 1005 ft | 95 kts | 293° |
| 2026-05-07 19:14 | 56.05406 | 47.32355 | 1050 ft | 93 kts | 296° |
| 2026-05-07 19:14 | 56.05855 | 47.31496 | 1049 ft | 97 kts | 322° |
| 2026-05-07 19:14 | 56.06388 | 47.30827 | 1057 ft | 82 kts | 329° |
| 2026-05-07 19:15 | 56.06821 | 47.30512 | 1053 ft | 58 kts | 346° |
| 2026-05-07 19:15 | 56.07215 | 47.30351 | 1045 ft | 60 kts | 348° |
| 2026-05-07 19:15 | 56.07616 | 47.30194 | 1070 ft | 58 kts | 352° |
| 2026-05-07 19:15 | 56.08018 | 47.30272 | 998 ft | 61 kts | 25° |
| 2026-05-07 19:16 | 56.08318 | 47.30724 | 878 ft | 56 kts | 71° |
| 2026-05-07 19:16 | 56.08431 | 47.31380 | 759 ft | 54 kts | 76° |
| 2026-05-07 19:16 | 56.08535 | 47.32006 | 673 ft | 52 kts | 73° |
| 2026-05-07 19:16 | 56.08640 | 47.32599 | 612 ft | 48 kts | 73° |
| 2026-05-07 19:17 | 56.08733 | 47.33112 | 567 ft | 33 kts | 72° |
| 2026-05-07 19:17 | 56.08749 | 47.33238 | 562 ft | 10 kts | 249° |
| 2026-05-07 19:17 | 56.08709 | 47.33028 | 561 ft | 24 kts | 252° |
| 2026-05-07 19:17 | 56.08608 | 47.32738 | 559 ft | 28 kts | 234° |
| 2026-05-07 19:18 | 56.08497 | 47.32460 | 559 ft | 26 kts | 234° |
| 2026-05-07 19:18 | 56.08470 | 47.32392 | 559 ft | 0 kts | 234° |
| 2026-05-07 19:22 | 56.08470 | 47.32393 | 559 ft | 0 kts | 234° |
| 2026-05-07 19:23 | 56.08442 | 47.32319 | 559 ft | 17 kts | 233° |
| 2026-05-07 19:23 | 56.08406 | 47.32145 | 559 ft | 4 kts | 202° |
| 2026-05-07 19:23 | 56.08399 | 47.32145 | 565 ft | 0 kts | 168° |